Time;durP1;ratioP1;P1;durP2;ratioP2;P2;SDS_P1;SDS_P2;PMS_P1;PMS_P2;Temp;Humidity;BMP_temperature;BMP_pressure;BME280_temperature;BME280_humidity;BME280_pressure;Samples;Min_cycle;Max_cycle;Signal;HPM_P1;HPM_P2
2022/08/07 00:00:47;;;;;;;4.05;2.60;;;;;;;17.78;56.41;102572.66;4997028;28;20362;-69
2022/08/07 00:03:12;;;;;;;7.03;2.88;;;;;;;17.74;56.47;102570.84;4996408;28;20392;-68
2022/08/07 00:05:37;;;;;;;8.10;2.85;;;;;;;17.69;56.45;102564.53;4996621;28;20391;-69
2022/08/07 00:08:04;;;;;;;7.47;2.70;;;;;;;17.65;56.45;102565.38;4979602;28;20037;-69
2022/08/07 00:10:29;;;;;;;4.07;2.70;;;;;;;17.59;56.63;102570.66;4996871;28;20033;-69
2022/08/07 00:12:56;;;;;;;4.25;2.80;;;;;;;17.37;57.37;102564.19;4996779;28;20101;-69
2022/08/07 00:15:21;;;;;;;4.65;2.80;;;;;;;17.30;57.66;102565.94;4996874;28;20078;-69
2022/08/07 00:17:47;;;;;;;4.35;2.70;;;;;;;17.33;57.67;102568.63;4995306;28;20022;-69
2022/08/07 00:20:12;;;;;;;4.72;3.10;;;;;;;17.26;57.66;102565.00;4996225;28;20026;-69
2022/08/07 00:22:38;;;;;;;6.43;2.80;;;;;;;17.18;57.70;102563.13;4996292;28;20034;-68
2022/08/07 00:25:06;;;;;;;5.25;2.80;;;;;;;17.13;58.03;102559.47;4976364;28;20022;-68
2022/08/07 00:27:31;;;;;;;4.40;2.80;;;;;;;17.22;58.02;102549.81;4976888;28;20090;-67
2022/08/07 00:29:57;;;;;;;6.07;2.85;;;;;;;17.26;57.74;102548.06;4976527;28;20027;-67
2022/08/07 00:32:22;;;;;;;5.43;2.80;;;;;;;17.24;57.69;102549.81;4976381;28;20039;-69
2022/08/07 00:34:48;;;;;;;5.20;2.80;;;;;;;17.19;57.76;102547.09;4976636;28;20031;-69
2022/08/07 00:37:15;;;;;;;5.18;2.90;;;;;;;17.15;58.22;102544.38;4976416;28;20031;-68
2022/08/07 00:39:40;;;;;;;5.15;2.70;;;;;;;17.05;58.13;102542.50;4976442;28;20031;-69
2022/08/07 00:42:05;;;;;;;4.95;2.70;;;;;;;16.95;58.31;102541.47;4975307;28;20037;-69
2022/08/07 00:44:34;;;;;;;5.25;2.90;;;;;;;16.91;58.59;102532.53;4976336;28;20041;-69
2022/08/07 00:47:01;;;;;;;4.38;2.80;;;;;;;16.80;58.89;102535.97;4976193;28;20030;-69
2022/08/07 00:49:26;;;;;;;3.80;2.58;;;;;;;16.72;59.37;102533.16;4976106;28;20050;-69
2022/08/07 00:51:52;;;;;;;4.35;2.95;;;;;;;16.74;59.27;102535.03;4977131;28;20030;-69
2022/08/07 00:54:18;;;;;;;6.20;3.00;;;;;;;16.69;59.31;102543.81;4976576;28;20098;-68
2022/08/07 00:56:43;;;;;;;4.30;3.10;;;;;;;16.57;59.57;102536.53;4976694;28;20030;-69
2022/08/07 00:59:09;;;;;;;3.65;2.80;;;;;;;16.46;60.52;102531.06;4976275;28;20037;-69
2022/08/07 01:01:34;;;;;;;4.35;3.00;;;;;;;16.33;60.92;102533.53;4975887;28;20105;-68
2022/08/07 01:04:05;;;;;;;3.78;3.05;;;;;;;16.30;60.87;102537.06;4975852;28;20023;-68
2022/08/07 01:06:30;;;;;;;5.45;3.10;;;;;;;16.23;60.91;102524.50;4976005;28;20110;-68
2022/08/07 01:08:58;;;;;;;5.07;2.88;;;;;;;16.21;60.86;102527.16;4975949;28;20113;-69
2022/08/07 01:11:23;;;;;;;6.07;3.17;;;;;;;16.24;60.70;102523.66;4976135;28;20046;-68
2022/08/07 01:13:49;;;;;;;5.03;3.00;;;;;;;16.23;60.52;102525.41;4976840;28;20027;-69
2022/08/07 01:16:15;;;;;;;6.93;3.03;;;;;;;16.19;60.88;102520.91;4976327;28;20512;-69
2022/08/07 01:18:41;;;;;;;5.68;2.95;;;;;;;16.30;60.59;102521.06;4976490;28;20038;-68
2022/08/07 01:21:10;;;;;;;7.88;2.90;;;;;;;16.36;60.37;102526.50;4976116;28;20031;-68
2022/08/07 01:23:36;;;;;;;6.47;3.17;;;;;;;16.33;60.35;102522.88;4975872;28;20102;-68
2022/08/07 01:26:02;;;;;;;4.65;3.10;;;;;;;16.28;60.33;102509.47;4985491;28;20054;-69
2022/08/07 01:28:28;;;;;;;4.65;3.08;;;;;;;16.19;60.86;102512.03;4977637;28;20030;-68
2022/08/07 01:30:55;;;;;;;5.68;3.40;;;;;;;16.24;60.68;102516.53;4994571;28;20543;-69
2022/08/07 01:33:22;;;;;;;3.50;2.80;;;;;;;16.25;60.63;102514.75;4995050;28;20023;-68
2022/08/07 01:35:48;;;;;;;4.45;3.20;;;;;;;16.30;60.36;102513.03;4995383;28;20026;-68
2022/08/07 01:38:13;;;;;;;5.40;3.30;;;;;;;16.26;60.37;102508.53;4994894;28;20035;-67
2022/08/07 01:40:39;;;;;;;5.03;3.40;;;;;;;16.30;60.64;102513.03;4995200;28;20496;-68
2022/08/07 01:43:05;;;;;;;4.35;2.97;;;;;;;16.27;60.69;102511.25;4994892;28;20048;-68
2022/08/07 01:45:32;;;;;;;6.07;3.40;;;;;;;16.08;61.55;102509.19;4994239;28;20033;-68
2022/08/07 01:47:58;;;;;;;4.32;3.30;;;;;;;16.05;61.31;102514.47;4994931;28;20102;-68
2022/08/07 01:50:26;;;;;;;5.25;3.28;;;;;;;15.92;61.88;102505.38;4994593;28;20392;-68
2022/08/07 01:52:54;;;;;;;6.40;3.50;;;;;;;15.78;62.13;102507.84;4977178;28;20121;-68
2022/08/07 01:55:25;;;;;;;4.60;3.30;;;;;;;15.74;61.85;102497.09;4994862;28;20050;-68
2022/08/07 01:57:54;;;;;;;5.13;3.28;;;;;;;15.78;62.20;102504.28;4994858;28;20117;-68
2022/08/07 02:00:20;;;;;;;4.97;3.40;;;;;;;15.81;62.29;102500.78;4977068;28;20085;-69
2022/08/07 02:02:52;;;;;;;6.43;3.58;;;;;;;15.80;62.18;102498.97;4994505;28;20464;-68
2022/08/07 02:05:25;;;;;;;7.13;3.42;;;;;;;15.63;62.11;102488.91;4994958;28;20447;-69
2022/08/07 02:07:53;;;;;;;5.60;3.50;;;;;;;15.57;62.78;102501.22;4994462;28;20045;-68
2022/08/07 02:10:23;;;;;;;4.45;3.33;;;;;;;15.52;62.75;102498.50;4995004;28;20033;-68
2022/08/07 02:12:50;;;;;;;4.90;3.30;;;;;;;15.61;62.81;102501.31;4994585;28;20101;-69
2022/08/07 02:15:22;;;;;;;9.80;3.42;;;;;;;15.60;62.60;102502.19;4994578;28;20050;-68
2022/08/07 02:17:48;;;;;;;5.53;3.22;;;;;;;15.57;62.59;102504.78;4994848;28;20038;-68
2022/08/07 02:20:16;;;;;;;4.57;3.40;;;;;;;15.52;62.82;102507.38;4994565;28;20066;-68
2022/08/07 02:22:41;;;;;;;5.72;3.70;;;;;;;15.51;63.00;102496.72;4994611;28;20038;-68
2022/08/07 02:25:09;;;;;;;4.22;3.25;;;;;;;15.52;63.22;102491.38;4993973;28;20027;-69
2022/08/07 02:27:38;;;;;;;6.63;3.60;;;;;;;15.49;62.77;102490.44;4994050;28;20026;-68
2022/08/07 02:30:04;;;;;;;4.82;3.42;;;;;;;15.50;62.68;102498.47;4994182;28;20026;-68
2022/08/07 02:32:32;;;;;;;6.47;3.55;;;;;;;15.45;62.64;102488.59;4994491;28;20070;-68
2022/08/07 02:34:59;;;;;;;5.40;3.80;;;;;;;15.40;62.57;102493.84;4994078;28;20487;-68
2022/08/07 02:37:26;;;;;;;4.97;3.85;;;;;;;15.48;62.29;102496.66;4994243;28;20026;-68
2022/08/07 02:39:54;;;;;;;4.90;3.80;;;;;;;15.51;62.39;102492.28;4994187;28;20376;-68
2022/08/07 02:42:20;;;;;;;6.18;3.55;;;;;;;15.46;62.42;102485.03;4994168;28;20492;-68
2022/08/07 02:44:49;;;;;;;5.18;3.55;;;;;;;15.38;62.44;102492.03;4994055;28;20488;-68
2022/08/07 02:47:17;;;;;;;5.30;3.70;;;;;;;15.26;63.25;102493.59;4993994;28;20022;-67
2022/08/07 02:49:43;;;;;;;5.03;3.78;;;;;;;15.28;63.06;102483.88;4993995;28;20019;-68
2022/08/07 02:52:12;;;;;;;5.88;3.70;;;;;;;15.26;62.68;102487.38;4976440;28;20105;-68
2022/08/07 02:54:40;;;;;;;6.10;3.60;;;;;;;15.27;62.30;102481.19;4994143;28;20073;-68
2022/08/07 02:57:10;;;;;;;7.30;3.85;;;;;;;15.17;62.86;102476.56;4993648;28;20035;-68
2022/08/07 02:59:37;;;;;;;5.65;4.20;;;;;;;15.24;62.38;102479.34;4993848;28;20034;-68
2022/08/07 03:02:03;;;;;;;6.38;3.70;;;;;;;15.27;62.23;102475.84;4993871;28;20480;-69
2022/08/07 03:04:29;;;;;;;6.28;4.03;;;;;;;15.35;62.49;102482.22;4994115;28;20022;-68
2022/08/07 03:06:56;;;;;;;7.75;4.05;;;;;;;15.38;61.95;102486.72;4997458;28;20041;-69
2022/08/07 03:09:21;;;;;;;5.18;3.80;;;;;;;15.37;62.58;102488.44;4996094;28;20030;-68
2022/08/07 03:11:48;;;;;;;5.53;3.95;;;;;;;15.25;62.90;102482.94;4997492;28;20038;-68
2022/08/07 03:14:14;;;;;;;6.60;3.70;;;;;;;15.17;63.35;102476.56;4997503;28;20022;-68
2022/08/07 03:16:40;;;;;;;5.80;4.07;;;;;;;15.11;63.30;102482.66;4997706;28;20089;-68
2022/08/07 03:19:06;;;;;;;7.10;3.90;;;;;;;15.10;63.39;102475.56;4997285;28;20432;-68
2022/08/07 03:21:32;;;;;;;5.72;4.10;;;;;;;15.01;63.94;102470.06;4997064;28;20090;-68
2022/08/07 03:23:58;;;;;;;4.55;3.88;;;;;;;15.07;63.24;102474.59;4980221;28;20119;-68
2022/08/07 03:26:27;;;;;;;5.03;3.92;;;;;;;15.00;63.80;102477.16;4996940;28;20059;-68
2022/08/07 03:28:55;;;;;;;6.03;4.10;;;;;;;14.95;63.71;102470.88;4997229;28;20365;-68
2022/08/07 03:31:22;;;;;;;5.43;3.90;;;;;;;14.91;64.19;102477.00;4980102;28;20022;-68
2022/08/07 03:34:09;;;;;;;6.20;3.95;;;;;;;14.95;63.22;102476.19;4979867;28;20026;-68
2022/08/07 03:36:37;;;;;;;6.30;4.20;;;;;;;14.86;64.04;102475.09;4997456;28;20018;-68
2022/08/07 03:39:08;;;;;;;6.10;4.40;;;;;;;14.80;64.03;102474.97;4996831;28;20057;-68
2022/08/07 03:41:36;;;;;;;11.32;4.05;;;;;;;14.70;64.84;102472.16;4996689;28;20030;-68
2022/08/07 03:44:02;;;;;;;6.78;4.45;;;;;;;14.67;65.14;102473.84;4997262;28;20045;-68
2022/08/07 03:46:28;;;;;;;5.00;4.05;;;;;;;14.74;64.93;102476.66;4996562;28;20511;-68
2022/08/07 03:48:54;;;;;;;5.65;4.20;;;;;;;14.73;64.50;102474.88;4997052;28;20030;-68
2022/08/07 03:51:20;;;;;;;6.05;4.05;;;;;;;14.70;64.45;102480.13;4996599;28;20438;-68
2022/08/07 03:53:47;;;;;;;6.18;4.65;;;;;;;14.66;65.12;102480.94;4996789;28;20058;-68
2022/08/07 03:56:19;;;;;;;5.88;4.28;;;;;;;14.54;65.38;102491.31;4996618;28;20080;-68
2022/08/07 03:58:44;;;;;;;6.13;4.25;;;;;;;14.54;65.07;102491.31;4996758;28;20047;-68
2022/08/07 04:01:12;;;;;;;6.90;4.20;;;;;;;14.42;64.64;102483.94;4996373;28;20366;-68
2022/08/07 04:03:38;;;;;;;6.90;4.35;;;;;;;14.42;65.21;102488.38;4979164;28;20057;-68
2022/08/07 04:06:07;;;;;;;5.95;4.40;;;;;;;14.45;64.91;102494.66;4996303;28;20555;-68
2022/08/07 04:08:33;;;;;;;6.25;4.10;;;;;;;14.49;64.71;102495.66;4963158;28;20039;-68
2022/08/07 04:10:59;;;;;;;8.25;4.25;;;;;;;14.48;64.95;102501.81;4978904;28;20033;-67
2022/08/07 04:13:25;;;;;;;7.78;4.20;;;;;;;14.58;64.46;102501.16;4996344;28;20031;-68
2022/08/07 04:15:50;;;;;;;7.78;4.40;;;;;;;14.64;64.41;102498.59;4979073;28;20117;-68
2022/08/07 04:18:16;;;;;;;9.35;4.55;;;;;;;14.75;64.29;102498.84;4996421;28;20110;-68
2022/08/07 04:20:42;;;;;;;7.00;4.50;;;;;;;14.72;64.26;102494.34;4996557;28;20495;-68
2022/08/07 04:23:09;;;;;;;7.10;4.50;;;;;;;14.65;64.25;102495.09;4996083;28;20189;-68
2022/08/07 04:25:39;;;;;;;6.95;4.40;;;;;;;14.67;64.28;102505.78;4995862;28;20065;-68
2022/08/07 04:28:09;;;;;;;7.25;4.38;;;;;;;14.69;64.10;102512.03;4996123;28;20026;-68
2022/08/07 04:30:35;;;;;;;6.22;4.40;;;;;;;14.71;64.10;102505.88;4995870;28;20030;-68
2022/08/07 04:33:06;;;;;;;9.13;4.45;;;;;;;14.66;64.57;102509.31;4996353;28;20113;-67
2022/08/07 04:35:31;;;;;;;8.90;4.72;;;;;;;14.71;64.60;102510.28;4996016;28;20023;-68
2022/08/07 04:37:57;;;;;;;6.07;4.40;;;;;;;14.66;64.42;102515.53;4978639;28;20053;-68
2022/08/07 04:40:23;;;;;;;6.78;4.80;;;;;;;14.58;64.92;102510.91;4995756;28;20022;-68
2022/08/07 04:42:48;;;;;;;7.35;4.75;;;;;;;14.67;64.61;102505.78;4995785;28;20042;-68
2022/08/07 04:45:14;;;;;;;9.38;4.82;;;;;;;14.62;65.50;102505.69;4995759;28;20034;-68
2022/08/07 04:47:57;;;;;;;6.88;4.90;;;;;;;14.61;65.58;102493.25;4995637;28;20029;-68
2022/08/07 04:50:25;;;;;;;7.03;5.28;;;;;;;14.61;66.12;102505.66;4995868;28;20034;-68
2022/08/07 04:53:09;;;;;;;6.63;5.07;;;;;;;14.59;66.09;102512.69;4995547;28;20028;-68
2022/08/07 04:55:46;;;;;;;7.85;5.50;;;;;;;14.68;66.49;102520.88;4995799;28;20174;-68
2022/08/07 04:58:39;;;;;;;6.93;5.05;;;;;;;14.75;66.41;102512.16;4995727;28;20050;-68
2022/08/07 05:01:31;;;;;;;9.32;5.75;;;;;;;14.83;66.04;102515.88;4961806;28;20033;-68
2022/08/07 05:04:09;;;;;;;7.18;5.45;;;;;;;14.83;67.22;102520.28;4972319;28;20053;-68
2022/08/07 05:06:42;;;;;;;8.73;5.57;;;;;;;14.86;67.34;102517.66;4995495;28;20392;-68
2022/08/07 05:09:15;;;;;;;8.32;5.68;;;;;;;14.96;67.22;102517.00;4995183;28;20093;-68
2022/08/07 05:11:45;;;;;;;;;;;;;;;15.19;65.05;102517.44;4995889;28;20030;-68
2022/08/07 05:14:24;;;;;;;7.00;5.00;;;;;;;15.20;66.31;102527.22;4995315;28;19965;-68
2022/08/07 05:16:52;;;;;;;8.23;5.80;;;;;;;15.22;66.40;102520.16;4978086;28;20411;-68
2022/08/07 05:19:19;;;;;;;9.80;5.50;;;;;;;15.32;66.39;102514.13;4995297;28;20090;-68
2022/08/07 05:21:53;;;;;;;9.05;5.50;;;;;;;15.38;66.64;102526.66;4995130;28;20072;-68
2022/08/07 05:24:21;;;;;;;7.65;5.13;;;;;;;15.42;66.95;102524.09;4995088;28;20026;-68
2022/08/07 05:26:50;;;;;;;8.55;5.57;;;;;;;15.51;66.76;102526.91;4995039;28;20526;-68
2022/08/07 05:29:18;;;;;;;9.65;6.15;;;;;;;15.54;66.69;102526.03;4994476;28;20026;-68
2022/08/07 05:31:45;;;;;;;8.07;5.75;;;;;;;15.73;66.31;102528.19;4994834;28;20089;-68
2022/08/07 05:34:14;;;;;;;9.18;5.82;;;;;;;15.81;66.00;102527.44;4995189;28;20101;-68
2022/08/07 05:36:42;;;;;;;10.20;6.13;;;;;;;15.82;66.15;102519.44;4995036;28;20026;-68
2022/08/07 05:39:09;;;;;;;8.80;6.68;;;;;;;15.96;66.32;102527.66;4994681;28;20511;-68
2022/08/07 05:41:36;;;;;;;10.68;6.20;;;;;;;16.15;65.58;102534.19;4995166;28;20026;-68
2022/08/07 05:44:02;;;;;;;8.10;5.88;;;;;;;16.23;64.82;102528.09;4994862;28;20067;-68
2022/08/07 05:46:28;;;;;;;8.57;5.97;;;;;;;16.43;64.52;102535.44;4977707;28;20057;-67
2022/08/07 05:48:54;;;;;;;11.05;5.85;;;;;;;16.56;64.24;102532.06;4994937;28;20481;-68
2022/08/07 05:51:20;;;;;;;7.97;6.10;;;;;;;16.61;64.03;102526.78;4994838;28;20043;-67
2022/08/07 05:53:45;;;;;;;10.00;6.15;;;;;;;16.71;63.70;102531.38;4994752;28;20034;-68
2022/08/07 05:56:12;;;;;;;10.82;6.35;;;;;;;16.82;64.10;102528.88;4977300;28;20125;-68
2022/08/07 05:58:40;;;;;;;8.52;6.25;;;;;;;16.89;63.48;102534.31;4994798;28;20116;-68
2022/08/07 06:01:08;;;;;;;9.02;6.55;;;;;;;17.06;63.24;102537.16;4994790;28;20094;-68
2022/08/07 06:03:35;;;;;;;8.05;6.43;;;;;;;17.20;63.19;102534.63;4977422;28;20082;-68
2022/08/07 06:06:01;;;;;;;11.38;6.03;;;;;;;17.38;62.00;102526.78;4994406;28;20026;-68
2022/08/07 06:08:27;;;;;;;13.48;7.20;;;;;;;17.61;61.20;102542.16;4994811;28;20037;-68
2022/08/07 06:10:53;;;;;;;9.65;6.85;;;;;;;17.71;60.45;102542.25;4995053;28;20023;-68
2022/08/07 06:13:19;;;;;;;10.27;6.82;;;;;;;17.86;60.70;102538.84;4977322;28;20476;-68
2022/08/07 06:15:47;;;;;;;12.57;7.18;;;;;;;17.97;59.99;102541.59;4994536;28;20093;-68
2022/08/07 06:18:13;;;;;;;10.27;6.88;;;;;;;18.11;60.02;102536.31;4976936;28;20053;-68
2022/08/07 06:20:39;;;;;;;9.98;6.93;;;;;;;18.22;59.10;102542.66;4994479;28;20415;-68
2022/08/07 06:23:07;;;;;;;10.60;6.90;;;;;;;18.32;59.05;102546.28;4977257;28;20105;-68
2022/08/07 06:25:34;;;;;;;14.20;7.03;;;;;;;18.57;58.08;102553.56;4977214;28;20096;-69
2022/08/07 06:28:07;;;;;;;11.35;7.30;;;;;;;18.64;58.61;102549.13;4994671;28;20026;-68
2022/08/07 06:30:36;;;;;;;10.10;6.68;;;;;;;18.89;57.61;102552.84;4994838;28;20030;-68
2022/08/07 06:33:02;;;;;;;13.10;7.95;;;;;;;18.98;56.53;102545.72;4994876;28;20464;-68
2022/08/07 06:35:28;;;;;;;11.30;7.22;;;;;;;19.06;55.91;102542.16;4994229;28;20065;-68
2022/08/07 06:37:54;;;;;;;13.00;7.40;;;;;;;19.16;55.21;102547.56;4994714;28;20046;-69
2022/08/07 06:40:20;;;;;;;14.32;7.85;;;;;;;19.32;55.14;102547.59;4996134;28;20038;-68
2022/08/07 06:42:47;;;;;;;12.85;7.85;;;;;;;19.50;55.29;102545.81;4998533;28;20022;-68
2022/08/07 06:45:16;;;;;;;12.60;7.70;;;;;;;19.66;54.82;102538.72;4998343;28;20026;-68
2022/08/07 06:47:42;;;;;;;12.27;7.47;;;;;;;19.82;54.38;102530.66;4998328;28;20030;-68
2022/08/07 06:50:08;;;;;;;10.38;7.13;;;;;;;20.07;53.75;102532.41;4998094;28;20384;-68
2022/08/07 06:52:36;;;;;;;11.85;7.90;;;;;;;20.28;52.58;102528.78;4998963;28;20077;-69
2022/08/07 06:55:05;;;;;;;12.45;8.25;;;;;;;20.41;52.04;102533.22;4998798;28;20105;-68
2022/08/07 06:57:32;;;;;;;10.82;7.50;;;;;;;20.71;51.93;102526.00;4998373;28;20035;-69
2022/08/07 06:59:58;;;;;;;13.98;8.10;;;;;;;20.95;51.18;102523.19;4981404;28;20037;-68
2022/08/07 07:02:24;;;;;;;10.50;7.47;;;;;;;21.06;50.77;102514.16;4998448;28;20121;-68
2022/08/07 07:04:50;;;;;;;12.35;8.60;;;;;;;21.13;50.24;102521.28;4998276;28;20026;-68
2022/08/07 07:07:16;;;;;;;10.50;7.10;;;;;;;21.38;48.08;102508.63;4998697;28;20033;-69
2022/08/07 07:09:46;;;;;;;13.32;6.80;;;;;;;21.48;47.24;102510.31;4980719;28;20026;-68
2022/08/07 07:12:21;;;;;;;13.75;7.20;;;;;;;21.60;47.53;102522.78;4981417;28;20030;-68
2022/08/07 07:14:56;;;;;;;10.68;6.88;;;;;;;21.70;47.57;102522.69;4998144;28;20185;-68
2022/08/07 07:17:40;;;;;;;11.02;7.45;;;;;;;21.86;48.09;102533.31;4998471;28;20045;-69
2022/08/07 07:20:14;;;;;;;11.10;6.90;;;;;;;22.01;45.56;102535.84;4998327;28;20023;-68
2022/08/07 07:22:41;;;;;;;13.23;6.95;;;;;;;22.17;45.84;102528.53;4998435;28;20031;-69
2022/08/07 07:25:09;;;;;;;12.77;6.88;;;;;;;22.33;44.96;102531.97;4998046;28;20429;-69
2022/08/07 07:27:41;;;;;;;10.45;7.50;;;;;;;22.52;44.64;102524.56;4997510;28;20113;-69
2022/08/07 07:30:08;;;;;;;9.20;7.00;;;;;;;22.64;44.81;102533.38;4997887;28;20038;-70
2022/08/07 07:32:39;;;;;;;10.02;6.97;;;;;;;22.78;44.43;102519.72;4997976;28;20027;-69
2022/08/07 07:35:09;;;;;;;10.32;6.97;;;;;;;22.87;43.60;102519.63;4997872;28;20061;-69
2022/08/07 07:37:38;;;;;;;10.63;6.90;;;;;;;23.03;43.94;102522.13;4998202;28;20050;-69
2022/08/07 07:40:13;;;;;;;12.25;7.18;;;;;;;23.13;43.74;102513.00;4996540;28;20022;-69
2022/08/07 07:42:39;;;;;;;9.43;6.60;;;;;;;23.44;42.97;102511.59;4998116;28;20053;-69
2022/08/07 07:45:06;;;;;;;11.32;6.63;;;;;;;23.64;41.80;102496.84;4999037;28;20031;-68
2022/08/07 07:47:35;;;;;;;10.65;6.93;;;;;;;23.79;41.18;102498.44;4998339;28;20105;-69
2022/08/07 07:50:02;;;;;;;8.02;6.40;;;;;;;24.11;40.64;102497.81;4997806;28;20023;-69
2022/08/07 07:52:29;;;;;;;9.13;6.40;;;;;;;24.25;39.96;102493.06;4997110;28;20046;-68
2022/08/07 07:54:55;;;;;;;9.38;6.47;;;;;;;24.36;39.33;102498.22;4997814;28;20045;-69
2022/08/07 07:57:23;;;;;;;9.27;6.05;;;;;;;24.44;39.61;102490.91;4997464;28;20026;-69
2022/08/07 07:59:50;;;;;;;9.38;6.25;;;;;;;24.60;38.96;102499.56;4997756;28;20031;-69
2022/08/07 08:02:18;;;;;;;8.77;5.70;;;;;;;24.78;38.75;102490.16;4997392;28;20034;-69
2022/08/07 08:04:45;;;;;;;8.68;5.13;;;;;;;24.86;38.71;102490.88;4997465;28;20022;-68
2022/08/07 08:07:12;;;;;;;8.18;5.00;;;;;;;24.84;36.73;102495.44;4997156;28;20544;-69
2022/08/07 08:09:39;;;;;;;11.00;5.20;;;;;;;24.97;37.97;102491.53;4979939;28;20033;-69
2022/08/07 08:12:12;;;;;;;7.93;5.32;;;;;;;25.20;37.30;102491.91;4997137;28;20037;-69
2022/08/07 08:14:37;;;;;;;7.38;5.15;;;;;;;25.33;37.33;102495.22;4997225;28;20030;-69
2022/08/07 08:17:08;;;;;;;8.15;5.55;;;;;;;25.48;36.58;102497.53;4996794;28;20077;-68
2022/08/07 08:19:37;;;;;;;10.38;5.60;;;;;;;25.45;37.19;102494.91;4997051;28;20037;-68
2022/08/07 08:27:38;;;;;;;8.50;5.20;;;;;;;26.04;36.10;102494.28;4996868;28;20547;-68
2022/08/07 08:30:06;;;;;;;7.35;5.03;;;;;;;26.21;36.26;102502.84;4996692;28;20105;-68
2022/08/07 08:32:48;;;;;;;10.60;4.80;;;;;;;26.51;35.34;102499.28;4996945;28;20030;-68
2022/08/07 08:35:20;;;;;;;6.50;4.70;;;;;;;26.52;35.05;102499.28;4981599;28;20516;-67
2022/08/07 08:37:48;;;;;;;8.40;4.30;;;;;;;26.58;35.02;102503.63;4996577;28;20109;-68
2022/08/07 08:40:21;;;;;;;6.82;4.20;;;;;;;26.74;34.32;102502.22;4996534;28;20026;-68
2022/08/07 08:43:00;;;;;;;6.35;4.28;;;;;;;26.86;33.81;102499.13;4962942;28;20034;-68
2022/08/07 08:45:48;;;;;;;7.53;4.22;;;;;;;27.10;33.96;102502.91;4978944;28;20065;-68
2022/08/07 08:48:16;;;;;;;6.93;3.88;;;;;;;27.25;33.00;102500.66;4996557;28;20038;-67
2022/08/07 08:50:51;;;;;;;6.70;4.47;;;;;;;27.40;33.12;102495.59;4996350;28;20026;-67
2022/08/07 08:53:39;;;;;;;7.55;4.63;;;;;;;27.50;33.51;102492.59;4995964;28;20033;-68
2022/08/07 08:56:13;;;;;;;6.45;4.35;;;;;;;27.73;33.54;102495.41;4994552;28;20061;-67
2022/08/07 08:59:15;;;;;;;7.22;3.88;;;;;;;27.87;33.04;102492.19;4995026;28;20105;-67
2022/08/07 09:01:52;;;;;;;7.10;3.70;;;;;;;27.88;32.53;102493.97;4995045;28;20073;-68
2022/08/07 09:04:27;;;;;;;6.80;4.20;;;;;;;27.94;32.53;102496.50;4995352;28;20062;-67
2022/08/07 09:07:01;;;;;;;7.68;3.95;;;;;;;28.00;32.71;102498.97;4994813;28;20483;-68
2022/08/07 09:09:44;;;;;;;7.50;4.00;;;;;;;28.06;32.14;102489.72;4995042;28;20330;-68
2022/08/07 09:12:28;;;;;;;8.98;4.07;;;;;;;28.32;32.00;102489.66;4994656;28;20037;-68
2022/08/07 09:15:27;;;;;;;7.95;4.15;;;;;;;28.43;31.31;102489.25;4994365;28;20022;-69
2022/08/07 09:18:30;;;;;;;6.40;3.90;;;;;;;28.64;32.08;102493.00;4969692;28;20045;-68
2022/08/07 09:21:18;;;;;;;6.40;3.50;;;;;;;28.77;30.32;102487.94;4994530;28;20036;-69
2022/08/07 09:24:00;;;;;;;6.55;3.53;;;;;;;28.90;28.77;102489.22;4994421;28;20027;-68
2022/08/07 09:26:36;;;;;;;6.35;3.95;;;;;;;28.71;28.72;102483.66;4994249;28;20433;-69
2022/08/07 09:29:21;;;;;;;7.13;3.72;;;;;;;29.18;29.41;102478.16;4994317;28;20472;-68
2022/08/07 09:32:11;;;;;;;6.70;3.75;;;;;;;29.45;29.19;102470.66;4994354;28;20113;-68
2022/08/07 09:35:03;;;;;;;7.53;3.50;;;;;;;29.51;29.38;102480.38;4994212;28;20037;-68
2022/08/07 09:38:06;;;;;;;6.57;3.53;;;;;;;29.81;28.42;102480.97;4994544;28;20061;-68
2022/08/07 09:40:46;;;;;;;8.30;3.40;;;;;;;29.71;27.50;102475.00;4975926;28;20141;-69
2022/08/07 09:43:29;;;;;;;5.90;3.58;;;;;;;29.90;27.03;102470.53;4993883;28;20019;-68
2022/08/07 09:46:20;;;;;;;6.47;3.30;;;;;;;29.97;26.92;102471.13;4993921;28;20022;-68
2022/08/07 09:49:08;;;;;;;5.68;3.90;;;;;;;29.87;26.26;102470.66;4976717;28;20126;-69
2022/08/07 09:52:01;;;;;;;6.65;3.92;;;;;;;30.22;27.45;102472.75;4993770;28;20035;-68
2022/08/07 09:54:39;;;;;;;7.18;3.58;;;;;;;30.35;26.54;102444.84;4994073;28;20156;-69
2022/08/07 09:57:32;;;;;;;5.75;3.08;;;;;;;30.49;26.29;102452.38;4993911;28;20031;-68
2022/08/07 10:00:03;;;;;;;5.30;3.50;;;;;;;30.46;26.76;102451.66;4993661;28;20035;-68
2022/08/07 10:02:47;;;;;;;4.28;3.17;;;;;;;30.50;25.06;102450.56;4993720;28;20033;-69
2022/08/07 10:05:45;;;;;;;4.80;3.30;;;;;;;30.42;26.60;102440.00;4993712;28;20034;-68
2022/08/07 10:08:32;;;;;;;6.47;3.63;;;;;;;30.39;27.05;102435.56;4993613;28;20508;-69
2022/08/07 10:11:21;;;;;;;8.73;3.45;;;;;;;30.62;26.61;102430.84;4993056;28;20022;-69
2022/08/07 10:14:19;;;;;;;7.93;3.50;;;;;;;30.90;25.62;102430.41;4993454;28;20034;-69
2022/08/07 10:16:57;;;;;;;7.15;3.70;;;;;;;30.85;25.15;102427.03;4993626;28;20082;-69
2022/08/07 10:19:55;;;;;;;6.38;3.20;;;;;;;31.16;25.38;102427.25;4993638;28;20034;-69
2022/08/07 10:22:45;;;;;;;6.63;3.63;;;;;;;31.39;25.57;102419.75;4993445;28;20532;-69
2022/08/07 10:25:56;;;;;;;6.95;3.75;;;;;;;31.48;24.61;102427.50;4990373;28;20079;-69
2022/08/07 10:28:52;;;;;;;5.93;3.60;;;;;;;31.59;23.60;102430.53;4914626;29;20032;-68
2022/08/07 10:31:58;;;;;;;4.78;3.42;;;;;;;31.65;24.95;102429.34;4974043;28;20050;-69
2022/08/07 10:34:52;;;;;;;5.65;3.33;;;;;;;32.04;23.74;102422.72;4956683;28;20528;-68
2022/08/07 10:37:20;;;;;;;5.80;3.22;;;;;;;31.47;23.63;102420.22;4974107;28;20122;-69
2022/08/07 10:40:04;;;;;;;6.93;3.30;;;;;;;31.71;24.42;102422.66;4973686;28;20034;-69
2022/08/07 10:42:33;;;;;;;7.25;3.20;;;;;;;31.75;23.57;102414.19;4973847;28;20433;-68
2022/08/07 10:45:38;;;;;;;6.38;3.53;;;;;;;32.20;23.47;102420.00;4973939;28;20034;-69
2022/08/07 10:48:12;;;;;;;7.03;3.28;;;;;;;32.32;22.90;102416.56;4972898;28;20034;-68
2022/08/07 10:50:52;;;;;;;4.13;3.03;;;;;;;32.27;23.32;102411.38;4973363;28;20030;-69
2022/08/07 10:53:25;;;;;;;5.15;3.08;;;;;;;32.16;22.19;102406.50;4973532;28;20039;-69
2022/08/07 10:55:54;;;;;;;5.93;3.60;;;;;;;32.35;22.19;102400.00;4970648;28;20027;-69
2022/08/07 10:58:23;;;;;;;5.63;3.20;;;;;;;32.12;23.04;102395.78;4973553;28;20544;-69
2022/08/07 11:00:56;;;;;;;5.45;2.65;;;;;;;32.15;22.47;102401.97;4973924;28;20035;-68
2022/08/07 11:03:36;;;;;;;5.85;3.20;;;;;;;32.52;22.28;102399.94;4973812;28;20039;-69
2022/08/07 11:06:13;;;;;;;5.65;3.00;;;;;;;32.51;23.15;102395.47;4973890;28;20031;-68
2022/08/07 11:08:51;;;;;;;6.13;3.20;;;;;;;32.69;23.25;102390.78;4973424;28;20026;-69
2022/08/07 11:11:35;;;;;;;4.75;3.10;;;;;;;32.69;22.40;102374.34;4973808;28;20070;-68
2022/08/07 11:14:12;;;;;;;5.18;3.10;;;;;;;32.84;21.69;102380.75;4973736;28;20027;-69
2022/08/07 11:17:02;;;;;;;5.28;3.13;;;;;;;32.90;22.06;102377.69;4973842;28;20030;-69
2022/08/07 11:19:33;;;;;;;4.38;3.15;;;;;;;32.92;21.40;102373.00;4973683;28;20489;-69
2022/08/07 11:22:16;;;;;;;5.68;3.35;;;;;;;32.98;22.84;102369.94;4973019;28;20038;-69
2022/08/07 11:25:07;;;;;;;4.68;2.92;;;;;;;33.17;21.93;102361.47;4972572;28;20038;-69
2022/08/07 11:28:08;;;;;;;5.00;3.10;;;;;;;33.20;21.32;102365.91;4976744;28;20489;-69
2022/08/07 11:30:44;;;;;;;9.25;3.20;;;;;;;32.27;21.38;102355.78;4975327;28;20495;-69
2022/08/07 11:33:48;;;;;;;5.32;3.10;;;;;;;32.06;22.59;102357.84;4977121;28;20437;-69
2022/08/07 11:36:43;;;;;;;4.40;2.80;;;;;;;32.20;21.34;102351.59;4976374;28;20390;-69
2022/08/07 11:39:31;;;;;;;10.75;3.50;;;;;;;32.49;21.34;102350.84;4967880;28;20388;-69
2022/08/07 11:42:13;;;;;;;4.70;2.78;;;;;;;32.89;21.53;102349.41;4976647;28;20033;-69
2022/08/07 11:45:06;;;;;;;5.53;3.00;;;;;;;32.79;20.69;102350.03;4960430;28;20491;-69
2022/08/07 11:47:56;;;;;;;4.15;3.00;;;;;;;32.95;20.81;102348.19;4976663;28;20034;-69
2022/08/07 11:50:48;;;;;;;4.88;3.10;;;;;;;32.97;21.28;102339.88;4976509;28;20062;-69
2022/08/07 11:53:19;;;;;;;;;;;;;;;33.42;21.33;102344.41;4976784;28;20492;-69